Time;durP1;ratioP1;P1;durP2;ratioP2;P2;SDS_P1;SDS_P2;PMS_P1;PMS_P2;Temp;Humidity;BMP_temperature;BMP_pressure;BME280_temperature;BME280_humidity;BME280_pressure;Samples;Min_cycle;Max_cycle;Signal;HPM_P1;HPM_P2
2021/12/26 00:01:02;;;;;;;62.17;20.13;;;;;;;-10.64;96.74;99828.56;4213775;28;20568;-73
2021/12/26 00:03:31;;;;;;;69.60;18.90;;;;;;;-10.60;97.00;99833.63;4186157;28;23694;-70
2021/12/26 00:06:00;;;;;;;66.23;18.70;;;;;;;-10.60;96.68;99828.50;4195118;28;20620;-71
2021/12/26 00:08:27;;;;;;;71.53;19.43;;;;;;;-10.56;97.14;99830.13;4187579;28;20276;-71
2021/12/26 00:10:54;;;;;;;63.10;21.03;;;;;;;-10.51;97.10;99836.91;4197071;28;20280;-73
2021/12/26 00:13:21;;;;;;;64.27;19.90;;;;;;;-10.55;96.59;99832.69;4202566;28;25621;-71
2021/12/26 00:15:48;;;;;;;65.43;18.97;;;;;;;-10.53;96.73;99832.69;4197130;28;20239;-71
2021/12/26 00:18:15;;;;;;;64.37;19.90;;;;;;;-10.51;96.79;99833.47;4213779;28;20312;-72
2021/12/26 00:20:42;;;;;;;67.10;20.80;;;;;;;-10.50;96.86;99837.75;4184301;28;26282;-73
2021/12/26 00:23:08;;;;;;;71.70;20.70;;;;;;;-10.46;96.91;99844.53;4190617;28;20302;-71
2021/12/26 00:25:35;;;;;;;69.83;19.90;;;;;;;-10.47;97.01;99850.53;4184127;28;20302;-72
2021/12/26 00:28:02;;;;;;;58.83;18.33;;;;;;;-10.44;96.92;99841.06;4195829;28;20337;-73
2021/12/26 00:30:29;;;;;;;56.53;18.13;;;;;;;-10.38;96.89;99842.66;4196471;28;20237;-72
2021/12/26 00:32:55;;;;;;;60.30;19.10;;;;;;;-10.33;96.77;99840.00;4187500;28;21625;-72
2021/12/26 00:35:24;;;;;;;59.43;19.07;;;;;;;-10.31;96.72;99851.13;4195248;28;20243;-72
2021/12/26 00:37:51;;;;;;;64.87;19.30;;;;;;;-10.29;96.91;99837.34;4179051;28;20326;-70
2021/12/26 00:40:20;;;;;;;54.60;18.23;;;;;;;-10.26;96.54;99842.38;4192780;28;20247;-72
2021/12/26 00:42:49;;;;;;;59.37;18.83;;;;;;;-10.22;96.81;99835.47;4205690;28;20372;-72
2021/12/26 00:45:17;;;;;;;64.20;19.20;;;;;;;-10.23;96.25;99839.78;4172907;28;25949;-71
2021/12/26 00:47:44;;;;;;;54.10;18.40;;;;;;;-10.23;96.21;99844.06;4180410;28;20248;-73
2021/12/26 00:50:13;;;;;;;61.13;19.37;;;;;;;-10.27;96.21;99847.59;4175773;28;20254;-72
2021/12/26 00:52:39;;;;;;;72.33;21.43;;;;;;;-10.32;96.54;99847.69;4190378;28;20237;-71
2021/12/26 00:55:10;;;;;;;69.47;20.47;;;;;;;-10.32;96.67;99842.56;4186432;28;20235;-71
2021/12/26 00:57:37;;;;;;;67.13;20.07;;;;;;;-10.33;96.38;99843.41;4183597;28;20677;-71
2021/12/26 01:00:06;;;;;;;63.67;19.77;;;;;;;-10.38;96.19;99845.22;4179292;28;20285;-72
2021/12/26 01:02:33;;;;;;;57.53;19.43;;;;;;;-10.26;96.83;99850.09;4190159;28;20234;-71
2021/12/26 01:05:00;;;;;;;59.30;18.20;;;;;;;-10.21;96.27;99848.31;4183391;28;20305;-72
2021/12/26 01:07:43;;;;;;;67.30;19.67;;;;;;;-10.15;96.41;99854.22;4191922;28;20242;-72
2021/12/26 01:10:10;;;;;;;56.73;18.67;;;;;;;-10.20;96.20;99850.00;4199668;28;21912;-70
2021/12/26 01:12:37;;;;;;;51.77;17.87;;;;;;;-10.20;96.37;99849.16;4178083;28;20254;-71
2021/12/26 01:15:08;;;;;;;62.80;19.73;;;;;;;-10.15;96.56;99856.78;4189814;28;22691;-71
2021/12/26 01:17:39;;;;;;;63.03;19.73;;;;;;;-10.17;96.58;99843.09;4175128;28;22399;-72
2021/12/26 01:20:10;;;;;;;55.43;19.40;;;;;;;-10.17;96.67;99848.25;4179619;28;20238;-70
2021/12/26 01:22:37;;;;;;;72.77;20.90;;;;;;;-10.09;96.92;99856.66;4192245;28;20233;-72
2021/12/26 01:25:05;;;;;;;55.87;18.40;;;;;;;-10.00;96.81;99846.19;4185639;28;20844;-72
2021/12/26 01:27:32;;;;;;;57.33;18.30;;;;;;;-9.93;96.41;99845.19;4194489;28;20242;-71
2021/12/26 01:29:59;;;;;;;63.80;20.30;;;;;;;-9.89;96.51;99848.56;4193199;28;20245;-71
2021/12/26 01:32:26;;;;;;;56.23;18.47;;;;;;;-9.91;96.23;99843.41;4186823;28;20373;-71
2021/12/26 01:34:53;;;;;;;57.03;19.10;;;;;;;-9.91;95.75;99840.84;4180715;28;20314;-71
2021/12/26 01:37:19;;;;;;;59.97;19.37;;;;;;;-9.90;96.09;99844.25;4194214;28;20237;-70
2021/12/26 01:39:46;;;;;;;55.13;18.00;;;;;;;-9.89;95.89;99845.97;4192997;28;20239;-73
2021/12/26 01:42:12;;;;;;;68.47;19.13;;;;;;;-9.91;96.29;99847.72;4184163;28;21889;-71
2021/12/26 01:44:40;;;;;;;53.13;18.73;;;;;;;-9.97;96.58;99846.13;4180765;28;21041;-72
2021/12/26 01:47:08;;;;;;;60.40;19.60;;;;;;;-9.94;95.96;99848.66;4180685;28;20255;-69
2021/12/26 01:49:34;;;;;;;65.27;20.77;;;;;;;-10.01;95.88;99840.19;4180694;28;20240;-71
2021/12/26 01:52:04;;;;;;;68.47;21.33;;;;;;;-10.11;95.79;99845.53;4340818;28;20232;-71
2021/12/26 01:54:43;;;;;;;68.90;21.50;;;;;;;-10.13;96.68;99844.75;4184122;28;20242;-69
2021/12/26 01:57:11;;;;;;;66.03;20.77;;;;;;;-10.16;96.64;99853.38;4194939;28;20417;-70
2021/12/26 01:59:39;;;;;;;73.80;20.33;;;;;;;-10.22;96.36;99851.75;4172510;28;20228;-72
2021/12/26 02:02:06;;;;;;;73.93;20.40;;;;;;;-10.12;96.62;99860.13;4189579;28;20221;-71
2021/12/26 02:04:36;;;;;;;68.23;20.47;;;;;;;-10.22;95.97;99862.03;4181316;28;20235;-71
2021/12/26 02:07:05;;;;;;;69.40;20.17;;;;;;;-10.30;96.78;99856.25;4186234;28;20264;-71
2021/12/26 02:09:32;;;;;;;63.50;20.20;;;;;;;-10.35;96.46;99855.47;4189451;28;21684;-73
2021/12/26 02:11:58;;;;;;;69.73;21.20;;;;;;;-10.37;96.62;99853.78;4202362;28;20267;-70
2021/12/26 02:14:25;;;;;;;54.50;18.10;;;;;;;-10.43;96.27;99850.47;4191229;28;20226;-70
2021/12/26 02:16:52;;;;;;;63.43;19.83;;;;;;;-10.47;96.65;99845.41;4189671;28;21410;-71
2021/12/26 02:19:20;;;;;;;70.13;19.63;;;;;;;-10.47;96.46;99853.97;4205710;28;20242;-71
2021/12/26 02:22:01;;;;;;;63.07;20.53;;;;;;;-10.49;96.77;99847.16;4189745;28;20256;-70
2021/12/26 02:25:28;;;;;;;62.00;20.47;;;;;;;-10.47;96.69;99853.13;4193008;28;20244;-70
2021/12/26 02:27:32;;;;;;;61.63;18.97;;;;;;;-10.44;96.69;99855.63;4205498;28;20240;-71
2021/12/26 02:30:07;;;;;;;77.57;20.50;;;;;;;-10.53;96.43;99860.97;4206223;28;20241;-71
2021/12/26 02:32:34;;;;;;;69.30;19.93;;;;;;;-10.51;96.86;99859.19;4197846;28;20235;-72
2021/12/26 02:35:01;;;;;;;52.33;18.93;;;;;;;-10.57;96.30;99856.75;4186649;28;20244;-71
2021/12/26 02:37:27;;;;;;;64.10;19.00;;;;;;;-10.62;97.10;99862.81;4210588;28;20301;-71
2021/12/26 02:39:54;;;;;;;61.93;20.13;;;;;;;-10.59;96.84;99867.03;4185020;28;20236;-71
2021/12/26 02:42:23;;;;;;;60.07;17.93;;;;;;;-10.60;96.94;99874.75;4182559;28;20355;-72
2021/12/26 02:44:50;;;;;;;58.43;18.73;;;;;;;-10.60;96.64;99869.63;4179143;28;20243;-71
2021/12/26 02:47:35;;;;;;;55.37;17.87;;;;;;;-10.64;97.00;99869.69;4190136;28;23748;-70
2021/12/26 02:50:09;;;;;;;72.70;17.80;;;;;;;-10.58;96.61;99883.31;4181972;28;20279;-71
2021/12/26 02:52:36;;;;;;;56.67;19.87;;;;;;;-10.63;97.15;99881.69;4197997;28;20643;-70
2021/12/26 02:55:04;;;;;;;61.83;19.57;;;;;;;-10.62;96.97;99878.22;4195851;28;20232;-70
2021/12/26 02:57:30;;;;;;;51.57;17.23;;;;;;;-10.67;96.81;99874.88;4199788;28;20351;-71
2021/12/26 03:00:00;;;;;;;58.50;19.40;;;;;;;-10.70;97.07;99858.66;4195303;28;20232;-71
2021/12/26 03:02:27;;;;;;;52.77;17.23;;;;;;;-10.67;97.46;99869.75;4188699;28;20241;-72
2021/12/26 03:04:54;;;;;;;56.30;17.27;;;;;;;-10.67;97.15;99871.47;4211193;28;21377;-72
2021/12/26 03:07:20;;;;;;;48.70;17.53;;;;;;;-10.70;97.31;99881.78;4194108;28;20722;-71
2021/12/26 03:09:49;;;;;;;54.77;18.33;;;;;;;-10.75;97.24;99879.28;4191861;28;20240;-71
2021/12/26 03:12:15;;;;;;;52.63;18.20;;;;;;;-10.80;97.59;99868.25;4206007;28;23524;-71
2021/12/26 03:14:42;;;;;;;51.13;16.33;;;;;;;-10.80;97.19;99873.38;4198734;28;20264;-72
2021/12/26 03:17:08;;;;;;;58.70;19.07;;;;;;;-10.80;97.51;99868.25;4189509;28;20665;-70
2021/12/26 03:19:36;;;;;;;52.67;18.03;;;;;;;-10.79;96.94;99880.25;4191502;28;21852;-72
2021/12/26 03:22:04;;;;;;;54.83;17.67;;;;;;;-10.78;97.51;99879.34;4194878;28;20225;-71
2021/12/26 03:24:31;;;;;;;62.33;19.57;;;;;;;-10.75;97.74;99881.88;4198291;28;20240;-71
2021/12/26 03:27:02;;;;;;;50.23;16.90;;;;;;;-10.74;97.02;99875.88;4184171;28;20232;-71
2021/12/26 03:29:30;;;;;;;50.50;16.10;;;;;;;-10.73;97.54;99879.28;4199174;28;20232;-71
2021/12/26 03:31:57;;;;;;;52.43;16.23;;;;;;;-10.76;97.34;99877.63;4205307;28;20246;-72
2021/12/26 03:34:24;;;;;;;54.60;17.33;;;;;;;-10.72;97.64;99876.69;4204084;28;20255;-70
2021/12/26 03:36:52;;;;;;;51.67;16.43;;;;;;;-10.70;97.06;99880.09;4189637;28;20312;-72
2021/12/26 03:39:19;;;;;;;53.93;17.40;;;;;;;-10.60;97.16;99882.47;4194746;28;22548;-71
2021/12/26 03:41:46;;;;;;;51.43;17.43;;;;;;;-10.66;97.02;99881.72;4208401;28;21316;-71
2021/12/26 03:44:13;;;;;;;49.30;15.87;;;;;;;-10.71;97.32;99880.09;4200086;28;23516;-70
2021/12/26 03:46:40;;;;;;;54.70;17.57;;;;;;;-10.71;97.39;99883.53;4200468;28;20231;-71
2021/12/26 03:49:10;;;;;;;57.17;17.50;;;;;;;-10.74;97.06;99888.72;4191508;28;20298;-69
2021/12/26 03:51:37;;;;;;;48.27;15.43;;;;;;;-10.72;97.45;99886.97;4181811;28;21746;-69
2021/12/26 03:54:05;;;;;;;56.80;17.40;;;;;;;-10.72;97.49;99886.97;4192069;28;20237;-70
2021/12/26 03:56:32;;;;;;;56.63;17.90;;;;;;;-10.77;97.37;99883.59;4185358;28;21824;-70
2021/12/26 03:58:59;;;;;;;62.20;18.00;;;;;;;-10.73;97.79;99880.13;4186243;28;20305;-69
2021/12/26 04:01:26;;;;;;;53.37;17.80;;;;;;;-10.72;97.47;99886.97;4186949;28;20240;-69
2021/12/26 04:03:53;;;;;;;60.83;18.47;;;;;;;-10.79;97.34;99889.66;4192453;28;20429;-70
2021/12/26 04:06:19;;;;;;;62.10;19.07;;;;;;;-10.87;97.50;99892.34;4199490;28;21330;-71
2021/12/26 04:08:46;;;;;;;53.97;17.07;;;;;;;-10.88;97.14;99900.94;4183995;28;20229;-70
2021/12/26 04:11:13;;;;;;;52.50;18.60;;;;;;;-10.88;96.98;99890.66;4197475;28;20233;-69
2021/12/26 04:13:39;;;;;;;50.30;17.53;;;;;;;-10.91;97.32;99893.25;4192490;28;20666;-70
2021/12/26 04:16:07;;;;;;;55.23;17.90;;;;;;;-10.91;97.40;99888.13;4194275;28;20241;-72
2021/12/26 04:18:33;;;;;;;54.57;18.53;;;;;;;-10.91;97.59;99891.56;4194540;28;26016;-70
2021/12/26 04:21:00;;;;;;;55.80;18.67;;;;;;;-10.96;97.41;99892.50;4189652;28;20551;-71
2021/12/26 04:23:27;;;;;;;62.00;18.93;;;;;;;-10.97;96.78;99895.94;4187057;28;20253;-69
2021/12/26 04:25:53;;;;;;;59.13;19.00;;;;;;;-10.98;97.87;99899.38;4207836;28;20233;-70
2021/12/26 04:28:20;;;;;;;55.47;19.03;;;;;;;-10.97;97.59;99896.78;4194643;28;22248;-70
2021/12/26 04:30:46;;;;;;;62.40;18.37;;;;;;;-10.93;98.00;99897.56;4181573;28;20233;-70
2021/12/26 04:33:13;;;;;;;60.80;19.87;;;;;;;-10.90;97.69;99895.81;4187826;28;20445;-70
2021/12/26 04:35:39;;;;;;;62.70;19.00;;;;;;;-10.83;97.92;99894.00;4186496;28;21435;-69
2021/12/26 04:38:09;;;;;;;51.63;18.80;;;;;;;-10.83;98.14;99894.00;4185743;28;20303;-70
2021/12/26 04:40:36;;;;;;;60.40;19.93;;;;;;;-10.81;97.97;99886.28;4188639;28;24453;-69
2021/12/26 04:43:02;;;;;;;52.43;17.77;;;;;;;-10.76;97.52;99893.03;4223741;28;20296;-71
2021/12/26 04:45:29;;;;;;;67.53;20.73;;;;;;;-10.81;97.91;99891.44;4197105;28;21935;-70
2021/12/26 04:47:56;;;;;;;60.43;20.17;;;;;;;-10.87;97.70;99892.34;4193604;28;21784;-71
2021/12/26 04:50:24;;;;;;;66.57;21.77;;;;;;;-10.85;97.50;99888.03;4196909;28;20409;-70
2021/12/26 04:52:51;;;;;;;58.17;19.80;;;;;;;-10.83;97.47;99894.00;4193116;28;20235;-69
2021/12/26 04:55:20;;;;;;;65.87;19.87;;;;;;;-10.92;97.93;99896.72;4192915;28;21268;-69
2021/12/26 04:57:47;;;;;;;61.73;20.50;;;;;;;-10.96;97.57;99893.34;4206084;28;21322;-70
2021/12/26 05:00:17;;;;;;;61.27;19.43;;;;;;;-10.90;97.47;99894.97;4193173;28;20237;-72
2021/12/26 05:02:44;;;;;;;63.17;21.03;;;;;;;-10.98;97.42;99899.38;4191494;28;21930;-70
2021/12/26 05:05:12;;;;;;;64.13;20.13;;;;;;;-10.99;97.55;99901.09;4196811;28;20253;-70
2021/12/26 05:07:40;;;;;;;63.63;20.87;;;;;;;-11.02;97.48;99898.59;4196367;28;20236;-71
2021/12/26 05:10:08;;;;;;;62.93;19.60;;;;;;;-11.09;97.78;99897.81;4180077;28;20234;-69
2021/12/26 05:12:36;;;;;;;66.63;19.50;;;;;;;-11.07;98.07;99895.25;4180389;28;20238;-71
2021/12/26 05:15:04;;;;;;;66.17;20.33;;;;;;;-11.11;98.27;99899.56;4178980;28;20288;-70
2021/12/26 05:17:31;;;;;;;60.77;19.70;;;;;;;-11.08;97.91;99903.81;4180153;28;20276;-70
2021/12/26 05:19:58;;;;;;;63.47;19.73;;;;;;;-11.10;98.03;99906.38;4204108;28;20235;-69
2021/12/26 05:22:24;;;;;;;66.37;20.43;;;;;;;-11.17;97.70;99909.91;4199943;28;20292;-72
2021/12/26 05:24:51;;;;;;;64.77;21.23;;;;;;;-11.23;97.55;99910.03;4201191;28;23432;-71
2021/12/26 05:27:17;;;;;;;73.43;22.10;;;;;;;-11.31;98.20;99911.84;4197644;28;20299;-70
2021/12/26 05:29:44;;;;;;;60.27;21.67;;;;;;;-11.40;98.02;99917.09;4204261;28;20311;-69
2021/12/26 05:32:10;;;;;;;69.23;22.27;;;;;;;-11.42;98.38;99913.69;4189820;28;20228;-71
2021/12/26 05:34:37;;;;;;;70.73;21.67;;;;;;;-11.40;98.07;99917.09;4191196;28;20241;-70
2021/12/26 05:37:04;;;;;;;69.10;21.93;;;;;;;-11.45;98.03;99922.28;4193142;28;20754;-70
2021/12/26 05:39:30;;;;;;;68.83;21.90;;;;;;;-11.45;98.41;99924.00;4202095;28;20324;-70
2021/12/26 05:41:57;;;;;;;75.03;23.77;;;;;;;-11.48;98.67;99925.75;4207891;28;20247;-71
2021/12/26 05:44:23;;;;;;;75.73;23.07;;;;;;;-11.52;98.53;99924.13;4191030;28;20244;-70
2021/12/26 05:46:50;;;;;;;68.10;22.30;;;;;;;-11.47;98.28;99926.63;4189980;28;21207;-70
2021/12/26 05:49:16;;;;;;;62.60;21.70;;;;;;;-11.54;98.40;99930.97;4172528;28;20427;-70
2021/12/26 05:51:43;;;;;;;72.37;22.37;;;;;;;-11.59;98.17;99925.03;4194391;28;20335;-70
2021/12/26 05:54:09;;;;;;;73.73;22.23;;;;;;;-11.68;98.25;99918.31;4196221;28;20673;-70
2021/12/26 05:56:37;;;;;;;72.47;23.73;;;;;;;-11.72;97.79;99920.94;4193070;28;20251;-71
2021/12/26 05:59:03;;;;;;;73.57;22.30;;;;;;;-11.75;98.37;99918.38;4191555;28;20249;-70
2021/12/26 06:01:30;;;;;;;69.20;24.07;;;;;;;-11.75;98.07;99915.81;4188847;28;20353;-70
2021/12/26 06:03:56;;;;;;;72.97;24.20;;;;;;;-11.78;98.13;99931.25;4186849;28;20300;-70
2021/12/26 06:06:23;;;;;;;69.77;23.33;;;;;;;-11.74;98.01;99933.78;4186110;28;20259;-70
2021/12/26 06:08:49;;;;;;;67.20;23.27;;;;;;;-11.78;98.56;99936.41;4186755;28;21209;-69
2021/12/26 06:11:16;;;;;;;71.43;22.80;;;;;;;-11.71;98.06;99943.16;4186812;28;20232;-70
2021/12/26 06:13:42;;;;;;;66.90;23.27;;;;;;;-11.76;98.23;99944.94;4182775;28;20726;-71
2021/12/26 06:16:09;;;;;;;82.37;24.37;;;;;;;-11.61;98.11;99954.16;4197966;28;20247;-69
2021/12/26 06:18:35;;;;;;;84.87;25.17;;;;;;;-11.57;98.74;99946.41;4192738;28;20242;-69
2021/12/26 06:21:02;;;;;;;85.87;27.87;;;;;;;-11.47;98.71;99955.69;4179598;28;20414;-70
2021/12/26 06:23:28;;;;;;;82.73;27.40;;;;;;;-11.27;100.00;99954.59;4189324;28;20317;-70
2021/12/26 06:25:55;;;;;;;83.80;26.83;;;;;;;-11.14;100.00;99953.56;4192528;28;20246;-70
2021/12/26 06:28:23;;;;;;;75.57;26.87;;;;;;;-11.02;100.00;99959.41;4189870;28;20313;-70
2021/12/26 06:30:50;;;;;;;95.70;28.60;;;;;;;-10.87;100.00;99969.44;4172279;28;25454;-71
2021/12/26 06:33:17;;;;;;;88.90;29.13;;;;;;;-10.78;100.00;99961.59;4198772;28;20444;-71
2021/12/26 06:35:43;;;;;;;93.37;31.57;;;;;;;-10.69;100.00;99968.31;4190017;28;21886;-71
2021/12/26 06:38:10;;;;;;;93.73;29.23;;;;;;;-10.59;100.00;99966.47;4185653;28;20231;-73
2021/12/26 06:40:36;;;;;;;81.87;28.60;;;;;;;-10.54;100.00;99962.09;4206237;28;20334;-72
2021/12/26 06:43:03;;;;;;;79.97;28.13;;;;;;;-10.52;100.00;99965.47;4206957;28;22385;-71
2021/12/26 06:45:30;;;;;;;79.10;24.40;;;;;;;-10.44;100.00;99976.47;4182128;28;20250;-72
2021/12/26 06:48:01;;;;;;;79.43;25.40;;;;;;;-10.42;100.00;99982.44;4195545;28;22028;-72
2021/12/26 06:50:28;;;;;;;85.00;26.80;;;;;;;-10.39;100.00;99978.97;4194138;28;20229;-71
2021/12/26 06:52:55;;;;;;;78.43;27.87;;;;;;;-10.38;100.00;99984.09;4180041;28;20223;-72
2021/12/26 06:55:22;;;;;;;80.77;25.67;;;;;;;-10.30;100.00;99982.28;4192034;28;20240;-71
2021/12/26 06:57:52;;;;;;;99.63;31.23;;;;;;;-10.31;100.00;99979.72;4191749;28;20323;-72
2021/12/26 07:00:18;;;;;;;90.93;28.33;;;;;;;-10.28;100.00;99980.47;4210520;28;21656;-73
2021/12/26 07:02:45;;;;;;;94.90;30.70;;;;;;;-10.25;100.00;99972.72;4195500;28;20736;-71
2021/12/26 07:05:14;;;;;;;92.90;30.80;;;;;;;-10.23;100.00;99991.56;4210248;28;21370;-71
2021/12/26 07:07:41;;;;;;;87.80;25.20;;;;;;;-10.11;100.00;99987.03;4191249;28;20248;-69
2021/12/26 07:10:09;;;;;;;94.33;28.20;;;;;;;-10.11;100.00;99984.47;4181965;28;20737;-72
2021/12/26 07:12:36;;;;;;;113.22;41.08;;;;;;;-10.11;100.00;99987.03;4175391;28;20426;-69
2021/12/26 07:15:04;;;;;;;108.57;33.23;;;;;;;-10.00;100.00;99993.72;4188887;28;20290;-67
2021/12/26 07:17:30;;;;;;;105.63;32.07;;;;;;;-9.93;100.00;99991.88;4186043;28;20239;-68
2021/12/26 07:19:57;;;;;;;101.13;32.00;;;;;;;-9.89;100.00;100008.97;4183495;28;21865;-67
2021/12/26 07:22:23;;;;;;;93.87;31.70;;;;;;;-9.84;100.00;100007.16;4193985;28;20279;-69
2021/12/26 07:24:50;;;;;;;108.07;32.97;;;;;;;-9.83;100.00;100006.28;4201398;28;20240;-67
2021/12/26 07:27:17;;;;;;;101.23;31.97;;;;;;;-9.77;100.00;100010.47;4215731;28;20239;-69
2021/12/26 07:29:43;;;;;;;101.90;34.00;;;;;;;-9.71;100.00;100014.66;4193922;28;21830;-68
2021/12/26 07:32:11;;;;;;;105.07;34.73;;;;;;;-9.66;100.00;100015.44;4205267;28;20301;-68
2021/12/26 07:34:38;;;;;;;97.93;34.70;;;;;;;-9.74;100.00;100019.84;4193099;28;20233;-68
2021/12/26 07:37:04;;;;;;;102.97;33.13;;;;;;;-9.60;100.00;100028.16;4167497;28;20231;-69
2021/12/26 07:39:31;;;;;;;99.57;33.80;;;;;;;-9.50;100.00;100031.44;4189331;28;21267;-70
2021/12/26 07:41:57;;;;;;;96.37;31.07;;;;;;;-9.44;100.00;100027.00;4205217;28;20236;-70
2021/12/26 07:44:24;;;;;;;104.57;33.33;;;;;;;-9.38;100.00;100029.47;4186922;28;20237;-68
2021/12/26 07:46:51;;;;;;;110.03;32.77;;;;;;;-9.39;100.00;100034.63;4191957;28;23709;-69
2021/12/26 07:49:22;;;;;;;106.87;33.20;;;;;;;-9.44;100.00;100032.16;4185428;28;20726;-70
2021/12/26 07:51:50;;;;;;;101.57;32.10;;;;;;;-9.33;100.00;100033.69;4182432;28;20236;-69
2021/12/26 07:54:17;;;;;;;120.40;36.87;;;;;;;-9.39;100.00;100035.50;4198484;28;20648;-70
2021/12/26 07:56:44;;;;;;;108.50;36.23;;;;;;;-9.32;100.00;100040.53;4183901;28;20256;-70
2021/12/26 07:59:11;;;;;;;127.07;37.20;;;;;;;-9.33;100.00;100031.97;4188729;28;20282;-67
2021/12/26 08:01:38;;;;;;;139.80;39.43;;;;;;;-9.31;100.00;100042.25;4190251;28;25292;-68
2021/12/26 08:04:08;;;;;;;129.63;37.50;;;;;;;-9.23;100.00;100041.19;4185346;28;20280;-70
2021/12/26 08:06:35;;;;;;;108.57;36.63;;;;;;;-9.15;100.00;100044.47;4187404;28;20241;-68
2021/12/26 08:09:02;;;;;;;119.23;37.07;;;;;;;-9.11;100.00;100040.09;4177361;28;21196;-69
2021/12/26 08:11:28;;;;;;;134.20;40.00;;;;;;;-9.09;100.00;100037.50;4192427;28;20232;-69
2021/12/26 08:13:55;;;;;;;127.20;38.47;;;;;;;-9.14;100.00;100047.91;4198459;28;21090;-70
2021/12/26 08:16:21;;;;;;;121.10;34.73;;;;;;;-9.00;100.00;100038.16;4194472;28;20399;-71
2021/12/26 08:18:48;;;;;;;110.03;36.17;;;;;;;-8.98;100.00;100035.56;4196201;28;20237;-69
2021/12/26 08:21:15;;;;;;;114.63;34.30;;;;;;;-8.95;100.00;100051.78;4192987;28;20246;-69
2021/12/26 08:23:41;;;;;;;109.07;35.53;;;;;;;-8.87;100.00;100048.19;4205484;28;20291;-68
2021/12/26 08:26:08;;;;;;;101.23;33.17;;;;;;;-8.78;100.00;100048.00;4190649;28;20925;-70
2021/12/26 08:28:35;;;;;;;98.67;34.97;;;;;;;-8.62;100.00;100044.19;4200196;28;25571;-68
2021/12/26 08:31:01;;;;;;;95.67;30.57;;;;;;;-8.63;100.00;100059.72;4200243;28;21817;-69
2021/12/26 08:33:28;;;;;;;107.37;33.63;;;;;;;-8.61;100.00;100058.81;4195471;28;21672;-68
2021/12/26 08:35:55;;;;;;;94.47;30.93;;;;;;;-8.54;100.00;100054.38;4187245;28;20813;-69
2021/12/26 08:38:21;;;;;;;79.50;28.50;;;;;;;-8.60;99.89;100052.75;4198280;28;20229;-69
2021/12/26 08:40:52;;;;;;;80.53;28.80;;;;;;;-8.54;99.46;100054.38;4194185;28;20243;-68
2021/12/26 08:43:19;;;;;;;81.13;27.07;;;;;;;-8.46;99.47;100049.88;4190657;28;20229;-69
2021/12/26 08:45:47;;;;;;;85.10;28.53;;;;;;;-8.43;99.58;100060.09;4198325;28;20240;-69
2021/12/26 08:48:14;;;;;;;82.17;27.30;;;;;;;-8.28;99.61;100053.72;4196029;28;20398;-69
2021/12/26 08:50:42;;;;;;;78.87;28.60;;;;;;;-8.13;98.57;100063.69;4177975;28;21688;-69
2021/12/26 08:53:09;;;;;;;80.23;30.10;;;;;;;-8.30;98.01;100064.09;4172225;28;21530;-69
2021/12/26 08:55:36;;;;;;;87.17;27.93;;;;;;;-8.27;97.76;100076.06;4192381;28;20240;-69
2021/12/26 08:58:06;;;;;;;72.73;24.40;;;;;;;-8.46;98.08;100079.97;4185865;28;20419;-69
2021/12/26 09:00:35;;;;;;;73.60;25.30;;;;;;;-8.42;98.69;100076.47;4180969;28;20229;-68
2021/12/26 09:03:02;;;;;;;69.67;24.80;;;;;;;-8.47;99.56;100073.13;4180218;28;20229;-67
2021/12/26 09:05:28;;;;;;;68.67;25.43;;;;;;;-8.48;99.14;100069.69;4196132;28;20638;-68
2021/12/26 09:07:55;;;;;;;67.37;24.07;;;;;;;-8.45;99.60;100067.06;4204596;28;20310;-68
2021/12/26 09:10:22;;;;;;;74.87;24.30;;;;;;;-8.55;99.27;100071.56;4194100;28;20309;-75
2021/12/26 09:12:49;;;;;;;71.57;25.23;;;;;;;-8.51;99.95;100088.66;4188541;28;20232;-69
2021/12/26 09:15:15;;;;;;;74.37;24.70;;;;;;;-8.40;100.00;100079.84;4208706;28;20244;-69
2021/12/26 09:17:43;;;;;;;71.27;25.57;;;;;;;-8.48;100.00;100082.59;4174651;28;20249;-68
2021/12/26 09:20:09;;;;;;;79.77;27.73;;;;;;;-8.41;100.00;100073.81;4176908;28;20593;-72
2021/12/26 09:22:36;;;;;;;86.30;29.20;;;;;;;-8.42;100.00;100071.31;4200304;28;20780;-71
2021/12/26 09:25:03;;;;;;;78.13;28.37;;;;;;;-8.30;100.00;100063.25;4202620;28;21431;-71
2021/12/26 09:27:30;;;;;;;79.73;27.63;;;;;;;-8.27;99.99;100061.41;4202651;28;20295;-69
2021/12/26 09:29:56;;;;;;;88.27;29.43;;;;;;;-8.12;100.00;100060.22;4225355;28;20231;-70
2021/12/26 09:32:23;;;;;;;83.03;28.67;;;;;;;-7.63;98.47;100063.31;4209482;28;20242;-71
2021/12/26 09:34:50;;;;;;;93.37;26.77;;;;;;;-7.01;95.27;100065.09;4198373;28;20322;-71
2021/12/26 09:37:16;;;;;;;78.37;26.87;;;;;;;-6.68;92.32;100065.00;4228938;28;20229;-69
2021/12/26 09:39:43;;;;;;;80.10;25.73;;;;;;;-4.90;88.46;100065.06;4214585;28;20624;-71
2021/12/26 09:42:09;;;;;;;65.27;22.80;;;;;;;-4.64;82.12;100059.81;4200220;28;20280;-68
2021/12/26 09:44:36;;;;;;;67.53;22.50;;;;;;;-4.74;78.21;100069.72;4194494;28;21564;-69
2021/12/26 09:47:05;;;;;;;58.63;22.50;;;;;;;-5.35;79.69;100068.41;4193090;28;20567;-69
2021/12/26 09:49:33;;;;;;;60.90;22.70;;;;;;;-5.46;82.22;100073.13;4190530;28;20341;-69
2021/12/26 09:52:00;;;;;;;67.47;21.27;;;;;;;-5.10;80.44;100072.75;4201474;28;20232;-67
2021/12/26 09:54:27;;;;;;;63.10;22.10;;;;;;;-4.77;78.90;100075.03;4202400;28;20306;-69
2021/12/26 09:56:53;;;;;;;63.43;21.57;;;;;;;-4.27;75.87;100074.81;4189708;28;20319;-69
2021/12/26 09:59:22;;;;;;;72.50;21.87;;;;;;;-4.14;73.66;100075.22;4193999;28;20331;-69
2021/12/26 10:01:51;;;;;;;55.57;19.93;;;;;;;-4.03;73.71;100084.25;4184935;28;21016;-69
2021/12/26 10:04:39;;;;;;;59.57;20.17;;;;;;;-4.22;73.20;100085.88;4197350;28;20240;-68
2021/12/26 10:07:17;;;;;;;57.43;21.10;;;;;;;-5.02;75.02;100086.28;4174359;28;20341;-69
2021/12/26 10:09:49;;;;;;;77.77;22.90;;;;;;;-6.27;80.24;100075.84;4187717;28;20220;-69
2021/12/26 10:12:20;;;;;;;68.83;23.20;;;;;;;-6.30;82.31;100073.31;4197268;28;20240;-69
2021/12/26 10:14:49;;;;;;;62.77;22.70;;;;;;;-6.55;83.91;100076.69;4188270;28;22259;-68
2021/12/26 10:17:23;;;;;;;62.97;21.97;;;;;;;-6.84;85.65;100070.59;4191789;28;20409;-69
2021/12/26 10:19:51;;;;;;;65.87;23.13;;;;;;;-6.94;87.05;100069.19;4216257;28;20237;-68
2021/12/26 10:22:26;;;;;;;63.63;22.27;;;;;;;-6.99;87.67;100075.41;4201103;28;20353;-69
2021/12/26 10:24:54;;;;;;;73.43;23.37;;;;;;;-7.08;88.71;100076.50;4209058;28;20361;-70
2021/12/26 10:27:30;;;;;;;65.20;21.10;;;;;;;-7.12;89.52;100082.63;4194362;28;20344;-69
2021/12/26 10:30:00;;;;;;;72.17;23.50;;;;;;;-7.29;91.19;100086.53;4188670;28;20236;-69
2021/12/26 10:32:29;;;;;;;60.43;21.93;;;;;;;-7.46;92.75;100078.38;4191572;28;22557;-68
2021/12/26 10:35:09;;;;;;;58.93;20.87;;;;;;;-7.33;93.83;100077.16;4189106;28;20236;-65
2021/12/26 10:38:02;;;;;;;67.17;22.10;;;;;;;-7.32;94.31;100084.03;4183810;28;20248;-67
2021/12/26 10:40:33;;;;;;;64.27;21.90;;;;;;;-7.27;94.57;100087.34;4179916;28;20256;-69
2021/12/26 10:43:01;;;;;;;63.00;22.13;;;;;;;-7.16;94.82;100088.75;4196359;28;21218;-68
2021/12/26 10:45:33;;;;;;;57.83;21.97;;;;;;;-7.06;94.75;100087.63;4208639;28;20240;-70
2021/12/26 10:48:05;;;;;;;57.83;20.93;;;;;;;-6.91;94.99;100092.38;4186001;28;20245;-72
2021/12/26 10:50:40;;;;;;;61.07;22.73;;;;;;;-7.10;94.93;100094.63;4196863;28;20244;-68
2021/12/26 10:53:11;;;;;;;64.20;22.20;;;;;;;-6.88;94.83;100096.63;4176439;28;21236;-69
2021/12/26 10:55:40;;;;;;;62.83;22.73;;;;;;;-6.85;94.80;100093.94;4178180;28;20239;-68
2021/12/26 10:58:13;;;;;;;60.70;21.90;;;;;;;-6.87;94.44;100091.41;4211412;28;20313;-71
2021/12/26 11:00:41;;;;;;;70.10;24.03;;;;;;;-6.97;95.31;100094.31;4204697;28;26393;-69
2021/12/26 11:03:14;;;;;;;74.47;23.83;;;;;;;-6.75;95.29;100095.38;4169322;28;22894;-68
2021/12/26 11:05:45;;;;;;;66.40;23.20;;;;;;;-6.73;95.18;100092.75;4193007;28;20240;-66
2021/12/26 11:08:36;;;;;;;59.53;22.77;;;;;;;-6.60;95.08;100096.69;4208012;28;20226;-68
2021/12/26 11:11:20;;;;;;;57.43;21.13;;;;;;;-6.50;94.69;100105.84;4203639;28;22954;-68